createdAt,value
2022-12-01T00:05:06.881Z,9.10
2022-12-01T00:15:11.724Z,9.80
2022-12-01T00:25:18.615Z,9.80
2022-12-01T00:35:22.198Z,10.40
2022-12-01T00:45:26.065Z,10.10
2022-12-01T00:55:29.619Z,10.60
2022-12-01T01:05:41.123Z,10.50
2022-12-01T01:15:44.895Z,10.50
2022-12-01T01:25:48.438Z,10.90
2022-12-01T01:35:53.608Z,10.10
2022-12-01T01:45:57.273Z,11.00
2022-12-01T01:56:03.377Z,10.20
2022-12-01T02:06:12.031Z,10.50
2022-12-01T02:16:41.981Z,10.60
2022-12-01T02:27:25.133Z,10.90
2022-12-01T02:37:46.396Z,11.00
2022-12-01T02:47:56.196Z,11.30
2022-12-01T02:58:00.352Z,10.90
2022-12-01T03:08:14.087Z,11.10
2022-12-01T03:18:37.901Z,10.80
2022-12-01T03:28:47.435Z,10.90
2022-12-01T03:39:00.340Z,11.80
2022-12-01T03:49:06.143Z,11.70
2022-12-01T03:59:11.592Z,12.50
2022-12-01T04:09:15.156Z,12.30
2022-12-01T04:19:21.867Z,14.30
2022-12-01T04:29:25.413Z,13.50
2022-12-01T04:39:28.949Z,14.20
2022-12-01T04:49:33.932Z,12.90
2022-12-01T04:59:39.356Z,15.20
2022-12-01T05:09:44.417Z,15.40
2022-12-01T05:20:06.674Z,14.00
2022-12-01T05:30:12.438Z,13.00
2022-12-01T05:40:18.439Z,13.00
2022-12-01T05:50:23.481Z,13.30
2022-12-01T06:00:27.264Z,13.20
2022-12-01T06:10:30.905Z,13.20
2022-12-01T06:20:34.397Z,13.20
2022-12-01T06:30:40.072Z,13.50
2022-12-01T06:40:44.625Z,14.20
2022-12-01T06:50:48.415Z,13.80
2022-12-01T07:00:52.357Z,13.60
2022-12-01T07:11:01.046Z,21.10
2022-12-01T07:21:07.676Z,14.90
2022-12-01T07:31:15.984Z,14.80
2022-12-01T07:41:21.896Z,14.10
2022-12-01T07:51:27.341Z,14.00
2022-12-01T08:01:32.961Z,13.50
2022-12-01T08:11:36.884Z,15.50
2022-12-01T08:21:41.202Z,21.60
2022-12-01T08:31:45.176Z,16.50
2022-12-01T08:41:49.119Z,19.50
2022-12-01T08:51:52.705Z,17.00
2022-12-01T09:01:58.059Z,17.50
2022-12-01T09:12:03.788Z,20.00
2022-12-01T09:22:08.444Z,17.40
2022-12-01T09:32:13.643Z,17.00
2022-12-01T09:42:33.791Z,18.80
2022-12-01T09:52:43.766Z,18.50
2022-12-01T10:03:12.813Z,19.30
2022-12-01T10:13:23.314Z,19.70
2022-12-01T10:23:47.921Z,18.30
2022-12-01T10:34:00.318Z,16.80
2022-12-01T10:44:06.225Z,18.60
2022-12-01T10:54:13.481Z,17.90
2022-12-01T11:04:45.424Z,18.30
2022-12-01T11:14:57.602Z,21.10
2022-12-01T11:25:06.910Z,18.90
2022-12-01T11:35:13.593Z,18.50
2022-12-01T11:45:20.823Z,19.10
2022-12-01T11:55:27.589Z,20.70
2022-12-01T12:06:17.712Z,20.00
2022-12-01T12:17:08.989Z,19.90
2022-12-01T12:27:47.419Z,18.50
2022-12-01T12:37:50.988Z,19.00
2022-12-01T12:48:14.782Z,18.10
2022-12-01T12:58:29.488Z,20.70
2022-12-01T13:08:56.622Z,26.30
2022-12-01T13:19:12.799Z,23.10
2022-12-01T13:29:20.899Z,19.70
2022-12-01T13:39:29.776Z,18.80
2022-12-01T13:49:42.396Z,14.60
2022-12-01T14:00:01.122Z,15.80
2022-12-01T14:10:26.164Z,13.20
2022-12-01T14:20:36.122Z,17.80
2022-12-01T14:30:47.841Z,28.20
2022-12-01T14:40:55.732Z,25.60
2022-12-01T14:51:20.014Z,17.50
2022-12-01T15:13:59.529Z,23.00
2022-12-01T15:24:22.415Z,34.90
2022-12-01T15:34:31.028Z,20.30
2022-12-01T15:44:37.061Z,21.00
2022-12-01T15:54:40.880Z,19.90
2022-12-01T16:04:44.525Z,20.80
2022-12-01T16:15:10.194Z,23.70
2022-12-01T16:25:36.346Z,25.40
2022-12-01T16:35:39.937Z,21.90
2022-12-01T16:45:44.822Z,22.50
2022-12-01T16:55:53.263Z,28.40
2022-12-01T17:06:00.863Z,25.50
2022-12-01T17:16:07.270Z,28.30
2022-12-01T17:26:14.349Z,26.50
2022-12-01T17:36:19.308Z,30.90
2022-12-01T17:46:23.534Z,18.00
2022-12-01T17:56:27.328Z,18.30
2022-12-01T18:06:30.995Z,17.50
2022-12-01T18:16:35.047Z,23.20
2022-12-01T18:26:40.688Z,26.50
2022-12-01T18:36:44.466Z,28.60
2022-12-01T18:46:48.132Z,21.80
2022-12-01T18:56:59.041Z,23.30
2022-12-01T19:07:03.385Z,24.20
2022-12-01T19:17:07.513Z,19.00
2022-12-01T19:27:11.190Z,18.70
2022-12-01T19:37:14.814Z,20.00
2022-12-01T19:47:22.078Z,18.90
2022-12-01T19:57:26.312Z,16.80
2022-12-01T20:07:30.731Z,17.00
2022-12-01T20:17:37.954Z,16.20
2022-12-01T20:27:42.807Z,22.40
2022-12-01T20:37:46.581Z,25.10
2022-12-01T20:47:50.380Z,15.20
2022-12-01T20:57:54.007Z,15.30
2022-12-01T21:07:57.777Z,19.00
2022-12-01T21:18:10.021Z,14.70
2022-12-01T21:28:19.754Z,16.50
2022-12-01T21:38:23.574Z,14.50
2022-12-01T21:48:35.300Z,14.30
2022-12-01T21:58:39.133Z,16.10
2022-12-01T22:08:46.509Z,17.60
2022-12-01T22:18:56.302Z,14.70
2022-12-01T22:29:00.734Z,15.80
2022-12-01T22:39:25.305Z,18.00
2022-12-01T22:49:30.210Z,15.00
2022-12-01T22:59:39.723Z,17.80
2022-12-01T23:09:44.639Z,17.10
2022-12-01T23:19:55.198Z,16.30
2022-12-01T23:29:59.435Z,17.20
2022-12-01T23:40:15.266Z,16.00
2022-12-01T23:50:25.296Z,12.50
